Latest Weather Observations for Double Island Point

IDQ60801

Issued at 6:32 pm EST Tuesday 22 October 2019 (issued every 10 minutes, with the page automatically refreshed every 10 minutes)

About weather observations | Map of weather stations | Latest weather observations for QLD | Other Formats
Station Details ID: 040068 Name: DOUBLE ISLAND POINT LIGHTHOUSE Lat: -25.93 Lon: 153.19 Height: 95.64 m
Data from the previous 72 hours. | See also: Recent months at Double Island Point
Date/Time
EST
Temp
°C
App
Temp
°C
Dew
Point
°C
Rel
Hum
%
Delta-T
°C
Wind Press
QNH
hPa
Press
MSL
hPa
Rain since
9am
mm
Dir  Spd
km/h
Gust
km/h
Spd
kts
Gust
kts
22/06:30pm 20.3 16.0 14.4 69 3.4 SE 30 35 16 19 1023.0 1022.7 0.0
22/06:00pm 20.4 15.6 14.5 69 3.4 SE 33 39 18 21 1022.5 1022.2 0.0
22/05:30pm 20.5 15.7 13.9 66 3.8 SE 32 37 17 20 1022.2 1021.9 0.0
22/05:00pm 20.7 16.3 14.1 66 3.8 SE 30 37 16 20 1021.9 1021.6 0.0
22/04:30pm 21.0 16.9 13.7 63 4.2 SE 28 33 15 18 1021.8 1021.5 0.0
22/04:00pm 21.3 16.8 13.7 62 4.4 SE 30 35 16 19 1021.7 1021.4 0.0
22/03:30pm 21.7 17.0 13.3 59 4.8 SE 30 33 16 18 1021.7 1021.4 0.0
22/03:00pm 21.7 16.7 13.3 59 4.8 SSE 32 37 17 20 1021.6 1021.3 0.0
22/02:30pm 22.1 17.6 13.7 59 4.9 SSE 30 35 16 19 1021.8 1021.5 0.0
22/02:00pm 22.4 18.1 13.2 56 5.3 SSE 28 35 15 19 1022.1 1021.8 0.0
22/01:30pm 22.7 18.9 13.5 56 5.3 SSE 26 30 14 16 1022.5 1022.2 0.0
22/01:00pm 22.9 18.9 13.1 54 5.6 SSE 26 32 14 17 1022.7 1022.4 0.0
22/12:30pm 23.0 19.5 13.5 55 5.5 SSE 24 30 13 16 1023.1 1022.8 0.0
22/12:00pm 23.1 19.7 13.6 55 5.5 SSE 24 30 13 16 1023.3 1023.0 0.0
22/11:30am 23.0 19.4 13.2 54 5.7 SSE 24 28 13 15 1023.5 1023.2 0.0
22/11:00am 22.6 18.3 12.0 51 6.0 SE 26 32 14 17 1023.8 1023.5 0.0
22/10:30am 23.3 19.4 12.0 49 6.4 SSE 24 30 13 16 1024.0 1023.7 0.0
22/10:00am 23.0 19.4 13.2 54 5.7 SSE 24 30 13 16 1024.4 1024.0 0.0
22/09:30am 23.0 20.1 12.9 53 5.8 SSE 20 26 11 14 1024.6 1024.2 0.0
22/09:00am 22.9 19.3 11.9 50 6.2 SE 22 26 12 14 1024.7 1024.3 0.0
22/08:30am 22.8 19.8 12.4 52 5.9 SE 20 26 11 14 1024.6 1024.2 0.0
22/08:00am 22.3 18.5 12.5 53 5.6 SE 24 30 13 16 1024.2 1023.9 0.0
22/07:30am 21.8 17.5 12.1 54 5.5 SE 26 32 14 17 1023.9 1023.6 0.0
22/07:00am 21.5 17.6 12.1 55 5.3 SE 24 30 13 16 1023.7 1023.4 0.0
22/06:30am 20.9 16.7 12.3 58 4.9 SE 26 32 14 17 1023.6 1023.3 0.0
22/06:00am 20.4 16.3 11.6 57 4.9 ESE 24 28 13 15 1023.4 1023.1 0.0
22/05:30am 19.6 14.9 11.9 61 4.3 SE 28 35 15 19 1022.9 1022.6 0.0
22/05:00am 19.5 15.1 13.0 66 3.7 SE 28 33 15 18 1022.7 1022.4 0.0
22/04:30am 19.4 15.0 12.9 66 3.7 SE 28 33 15 18 1022.5 1022.2 0.0
22/04:00am 19.3 14.8 12.6 65 3.8 SE 28 33 15 18 1022.4 1022.1 0.0
22/03:30am 19.3 14.7 12.3 64 3.9 SE 28 33 15 18 1022.3 1022.0 0.0
22/03:00am 19.3 14.4 12.6 65 3.8 SE 30 37 16 20 1022.2 1021.9 0.0
22/02:30am 19.3 14.6 12.1 63 4.0 SE 28 35 15 19 1022.5 1022.2 0.0
22/02:00am 19.3 14.5 11.8 62 4.1 SE 28 35 15 19 1022.6 1022.3 0.0
22/01:30am 19.4 14.0 12.2 63 4.0 SE 32 41 17 22 1022.9 1022.6 0.0
22/01:00am 19.4 14.5 11.2 59 4.5 SE 28 35 15 19 1023.3 1023.0 0.0
22/12:30am 19.5 14.0 12.0 62 4.2 ESE 32 35 17 19 1023.5 1023.2 0.0
22/12:00am 19.6 14.2 12.1 62 4.2 SE 32 37 17 20 1023.7 1023.4 0.0
 
Date/Time
EST
Temp
°C
App
Temp
°C
Dew
Point
°C
Rel
Hum
%
Delta-T
°C
Wind Press
QNH
hPa
Press
MSL
hPa
Rain since
9am
mm
Dir  Spd
km/h
Gust
km/h
Spd
kts
Gust
kts
21/11:30pm 19.7 13.7 12.0 61 4.3 SE 35 41 19 22 1024.0 1023.7 0.0
21/11:00pm 19.8 13.3 11.8 60 4.4 SE 37 44 20 24 1024.1 1023.8 0.0
21/10:30pm 19.8 12.6 11.8 60 4.5 ESE 41 46 22 25 1024.4 1024.0 0.0
21/10:00pm 19.9 13.0 12.7 63 4.1 ESE 41 50 22 27 1024.1 1023.8 0.0
21/09:30pm 19.9 12.4 12.2 61 4.3 SE 43 50 23 27 1024.1 1023.8 0.0
21/09:00pm 19.9 12.5 12.4 62 4.2 SE 43 54 23 29 1024.1 1023.8 0.0
21/08:30pm 20.0 12.9 13.5 66 3.7 SE 43 54 23 29 1024.0 1023.7 0.0
21/08:00pm 19.9 11.8 11.9 60 4.4 SE 46 56 25 30 1023.9 1023.6 0.0
21/07:30pm 19.9 11.5 12.2 61 4.3 SE 48 56 26 30 1023.7 1023.4 0.0
21/07:00pm 19.9 12.0 11.4 58 4.7 SE 44 50 24 27 1023.6 1023.3 0.0
21/06:30pm 19.9 11.9 12.4 62 4.2 SE 46 54 25 29 1023.1 1022.8 0.0
21/06:00pm 20.0 12.0 12.5 62 4.2 SE 46 54 25 29 1022.8 1022.5 0.0
21/05:30pm 20.1 11.3 12.3 61 4.4 SE 50 56 27 30 1022.3 1022.0 0.0
21/05:00pm 20.3 12.1 14.0 67 3.6 SSE 50 59 27 32 1021.9 1021.6 0.0
21/04:30pm 20.5 12.7 13.0 62 4.3 SSE 46 54 25 29 1021.9 1021.6 0.0
21/04:00pm 20.8 12.7 12.2 58 4.8 SSE 46 54 25 29 1021.9 1021.6 0.0
21/03:30pm 21.2 13.8 12.9 59 4.7 SSE 44 52 24 28 1021.8 1021.5 0.0
21/03:00pm 21.3 14.1 13.0 59 4.7 SSE 43 50 23 27 1021.8 1021.5 0.0
21/02:30pm 21.6 14.7 12.7 57 5.1 SSE 41 48 22 26 1022.0 1021.7 0.0
21/02:00pm 21.9 15.0 12.7 56 5.2 SSE 41 50 22 27 1022.1 1021.8 0.0
21/01:30pm 21.9 14.7 13.0 57 5.1 SSE 43 46 23 25 1022.4 1022.1 0.0
21/01:00pm 22.3 15.2 13.4 57 5.1 SSE 43 46 23 25 1022.6 1022.3 0.0
21/12:30pm 22.0 14.5 12.0 53 5.6 SSE 43 50 23 27 1022.6 1022.3 0.0
21/12:00pm 22.3 15.3 13.6 58 5.0 SSE 43 52 23 28 1022.8 1022.5 0.0
21/11:30am 22.1 14.3 12.9 56 5.3 SSE 46 52 25 28 1023.1 1022.8 0.0
21/11:00am 22.2 15.0 13.8 59 4.9 SSE 44 50 24 27 1023.1 1022.8 0.0
21/10:30am 22.2 14.9 14.6 62 4.5 SE 46 52 25 28 1023.3 1023.0 0.0
21/10:00am 22.4 15.1 14.5 61 4.6 SE 46 54 25 29 1023.5 1023.2 0.0
21/09:30am 22.3 15.3 15.2 64 4.2 SE 46 54 25 29 1023.4 1023.1 0.0
21/09:00am 22.0 14.4 15.8 68 3.7 SE 50 57 27 31 1023.3 1023.0 0.0
21/08:30am 21.9 13.8 15.5 67 3.8 SE 52 57 28 31 1023.0 1022.7 0.0
21/08:00am 21.5 14.4 16.0 71 3.3 SE 48 56 26 30 1022.7 1022.4 0.0
21/07:30am 21.9 15.3 16.4 71 3.3 SE 46 56 25 30 1022.5 1022.2 0.0
21/07:00am 21.8 16.0 17.4 76 2.7 SE 44 54 24 29 1022.3 1022.0 0.0
21/06:30am 21.3 14.4 15.6 70 3.4 SE 46 54 25 29 1021.9 1021.6 0.0
21/06:00am 20.9 13.9 16.3 75 2.8 SE 48 56 26 30 1021.5 1021.2 0.0
21/05:30am 20.6 13.2 16.2 76 2.7 SE 50 57 27 31 1021.3 1021.0 0.0
21/05:00am 20.5 13.9 16.3 77 2.5 SE 46 56 25 30 1020.9 1020.6 0.0
21/04:30am 20.5 13.4 16.1 76 2.6 SE 48 56 26 30 1020.4 1020.1 0.0
21/04:00am 20.5 12.8 16.5 78 2.4 SE 52 59 28 32 1020.1 1019.8 0.0
21/03:30am 20.6 13.7 16.6 78 2.4 SE 48 56 26 30 1019.9 1019.6 0.0
21/03:00am 20.6 14.0 16.4 77 2.5 SE 46 54 25 29 1020.0 1019.7 0.0
21/02:30am 20.7 14.7 16.9 79 2.3 SE 44 50 24 27 1020.1 1019.8 0.0
21/02:00am 20.6 13.8 16.8 79 2.3 SE 48 56 26 30 1020.1 1019.8 0.0
21/01:30am 20.7 13.5 16.7 78 2.4 SE 50 56 27 30 1020.0 1019.7 0.0
21/01:00am 20.8 13.3 17.0 79 2.3 SE 52 57 28 31 1020.2 1019.9 0.0
21/12:30am 20.8 13.4 17.2 80 2.2 SE 52 59 28 32 1020.3 1020.0 0.0
21/12:00am 20.8 13.3 17.0 79 2.3 SE 52 59 28 32 1020.5 1020.2 0.0
 
Date/Time
EST
Temp
°C
App
Temp
°C
Dew
Point
°C
Rel
Hum
%
Delta-T
°C
Wind Press
QNH
hPa
Press
MSL
hPa
Rain since
9am
mm
Dir  Spd
km/h
Gust
km/h
Spd
kts
Gust
kts
20/11:30pm 20.9 14.0 17.5 81 2.1 SE 50 56 27 30 1020.4 1020.1 0.0
20/11:00pm 20.9 14.5 17.7 82 2.0 SSE 48 56 26 30 1020.4 1020.1 0.0
20/10:30pm 20.9 14.1 17.7 82 2.0 SSE 50 57 27 31 1020.3 1020.0 0.0
20/10:00pm 21.0 15.2 18.2 84 1.7 SSE 46 54 25 29 1020.3 1020.0 0.0
20/09:30pm 21.0 14.9 18.4 85 1.6 SSE 48 56 26 30 1020.0 1019.7 0.0
20/09:00pm 21.1 14.5 18.1 83 1.9 SSE 50 56 27 30 1019.7 1019.3 0.0
20/08:30pm 21.2 14.4 17.8 81 2.1 SSE 50 57 27 31 1019.6 1019.2 0.0
20/08:00pm 21.3 14.8 17.5 79 2.3 SSE 48 54 26 29 1019.4 1019.0 0.0
20/07:30pm 21.4 14.8 17.2 77 2.6 SE 48 54 26 29 1018.9 1018.5 0.0
20/07:00pm 21.3 15.3 17.9 81 2.1 SE 46 54 25 29 1018.5 1018.1 0.0
20/06:30pm 21.3 14.6 17.9 81 2.1 SE 50 57 27 31 1018.0 1017.6 0.0
20/06:00pm 21.5 15.2 18.1 81 2.1 SE 48 56 26 30 1017.6 1017.2 0.0
20/05:30pm 21.6 15.2 18.6 83 1.9 SE 50 56 27 30 1017.1 1016.7 0.0
20/05:00pm 21.8 15.8 18.8 83 1.9 SE 48 56 26 30 1016.6 1016.2 0.0
20/04:30pm 22.0 15.8 18.2 79 2.4 SE 48 57 26 31 1016.2 1015.8 0.0
20/04:00pm 22.4 16.9 19.0 81 2.2 SSE 46 56 25 30 1016.1 1015.7 0.0
20/03:30pm 22.6 17.7 19.4 82 2.0 SSE 44 52 24 28 1015.8 1015.4 0.0
20/03:00pm 22.4 16.8 18.8 80 2.3 SSE 46 56 25 30 1015.8 1015.4 0.0
20/02:30pm 22.5 16.5 18.7 79 2.4 SSE 48 56 26 30 1016.0 1015.6 0.0
20/02:00pm 22.6 16.9 18.6 78 2.5 SSE 46 54 25 29 1016.1 1015.7 0.0
20/01:30pm 22.6 17.0 17.9 75 2.9 SSE 44 52 24 28 1016.3 1015.9 0.0
20/01:00pm 22.5 16.4 17.6 74 3.0 SSE 46 54 25 29 1016.4 1016.0 0.0
20/12:30pm 22.7 16.9 17.4 72 3.3 SSE 44 54 24 29 1016.6 1016.2 0.0
20/12:00pm 22.6 18.2 18.4 77 2.6 SSE 39 48 21 26 1016.8 1016.4 0.0
20/11:30am 23.3 18.3 17.1 68 3.8 SSE 39 46 21 25 1016.8 1016.4 0.0
20/11:00am 24.1 17.2 13.9 53 6.0 SSE 43 61 23 33 1016.4 1016.0 0.0
20/10:51am 25.1 22.8 15.7 56 5.7 SSE 22 41 12 22 1016.5 1016.1 0.0
20/10:30am 25.1 24.2 14.9 53 6.1 SSE 13 17 7 9 1016.5 1016.1 0.0
20/10:00am 26.1 25.0 14.2 48 7.1 S 13 17 7 9 1016.7 1016.3 0.0
20/09:30am 25.5 26.0 15.5 54 6.1 SSE 7 11 4 6 1016.8 1016.4 0.0
20/09:00am 24.3 26.5 17.5 66 4.2 WNW 2 9 1 5 1016.9 1016.5 18.2
20/08:30am 24.2 24.0 13.7 52 6.2 SSW 7 9 4 5 1016.8 1016.4 18.2
20/08:00am 23.2 23.7 16.5 66 4.1 WSW 9 13 5 7 1016.6 1016.2 18.2
20/07:30am 21.5 22.1 16.9 75 2.8 W 9 13 5 7 1016.5 1016.1 18.2
20/07:00am 20.1 19.5 16.7 81 2.1 WNW 15 17 8 9 1016.2 1015.8 18.2
20/06:30am 19.0 18.6 18.0 94 0.6 WNW 17 22 9 12 1016.1 1015.7 18.2
20/06:00am 18.6 16.1 18.1 97 0.3 NW 28 33 15 18 1015.7 1015.3 18.2
20/05:30am 18.6 16.1 18.1 97 0.3 NW 28 32 15 17 1015.5 1015.1 18.2
20/05:00am 18.8 16.8 18.3 97 0.3 WNW 26 28 14 15 1015.5 1015.1 18.2
20/04:30am 19.2 17.3 18.5 96 0.4 WNW 26 32 14 17 1015.2 1014.8 18.2
20/04:00am 19.4 17.2 18.7 96 0.4 WNW 28 35 15 19 1014.9 1014.5 18.2
20/03:30am 19.8 17.4 19.0 95 0.5 NW 30 39 16 21 1014.9 1014.5 18.2
20/03:00am 20.1 17.4 19.3 95 0.5 NW 32 39 17 21 1014.7 1014.3 18.2
20/02:30am 20.3 17.7 19.6 96 0.4 WNW 32 39 17 21 1014.6 1014.2 18.2
20/02:00am 20.4 18.7 19.7 96 0.4 NW 28 35 15 19 1014.8 1014.4 18.2
20/01:30am 20.2 17.6 19.5 96 0.4 WNW 32 37 17 20 1015.1 1014.7 18.2
20/01:00am 20.2 17.6 19.5 96 0.4 WNW 32 41 17 22 1015.2 1014.8 18.2
20/12:30am 20.0 18.1 19.3 96 0.4 NW 28 35 15 19 1015.4 1015.0 18.2
20/12:00am 19.8 18.2 19.1 96 0.4 WNW 26 33 14 18 1015.5 1015.1 18.2
 
Date/Time
EST
Temp
°C
App
Temp
°C
Dew
Point
°C
Rel
Hum
%
Delta-T
°C
Wind Press
QNH
hPa
Press
MSL
hPa
Rain since
9am
mm
Dir  Spd
km/h
Gust
km/h
Spd
kts
Gust
kts
19/11:30pm 20.0 18.9 19.5 97 0.3 NW 24 33 13 18 1016.0 1015.6 18.0
19/11:00pm 20.4 19.1 19.9 97 0.3 NW 26 32 14 17 1016.0 1015.6 18.0
19/10:30pm 20.6 21.5 20.1 97 0.3 N 15 24 8 13 1015.9 1015.5 18.0
19/10:00pm 20.0 21.8 19.5 97 0.3 N 9 20 5 11 1015.7 1015.3 18.0
19/09:30pm 19.8 21.6 19.5 98 0.2 N 9 13 5 7 1015.4 1015.0 18.0
19/09:00pm 19.6 21.3 19.3 98 0.2 NNE 9 20 5 11 1015.4 1015.0 18.0
19/08:30pm 19.5 22.1 19.3 99 0.1 NNE 4 15 2 8 1015.4 1015.0 18.0
19/08:00pm 19.4 21.4 19.2 99 0.1 N 7 19 4 10 1015.4 1015.0 18.0
19/07:30pm 19.1 19.8 18.9 99 0.1 N 13 32 7 17 1015.9 1015.5 17.6
19/07:00pm 18.8 20.5 18.6 99 0.1 NW 7 20 4 11 1015.9 1015.5 15.8

Other formats

Comma delimited format used in spreadsheet applications
http://www.bom.gov.au/fwo/IDQ60801/IDQ60801.94584.axf

JavaScript Object Notation format (JSON) in row-major order
http://www.bom.gov.au/fwo/IDQ60801/IDQ60801.94584.json

Data quality

Most of these data are generated automatically and are frequently updated. Quality checks on data are not normally performed. It is possible for incorrect values to appear. Refer to information at About Latest Weather Observations and please check the disclaimer before using these data.